createdAt,value
2023-02-25T00:01:44.486Z,95335.91
2023-02-25T00:04:18.512Z,95334.19
2023-02-25T00:06:47.444Z,95326.13
2023-02-25T00:09:15.487Z,95313.72
2023-02-25T00:11:43.528Z,95318.25
2023-02-25T00:14:11.632Z,95332.66
2023-02-25T00:16:39.816Z,95313.97
2023-02-25T00:19:07.904Z,95307.63
2023-02-25T00:21:38.164Z,95306.78
2023-02-25T00:24:15.852Z,95299.56
2023-02-25T00:26:44.776Z,95298.72
2023-02-25T00:29:15.134Z,95297.06
2023-02-25T00:31:43.545Z,95305.09
2023-02-25T00:34:11.952Z,95300.72
2023-02-25T00:36:41.684Z,95299.03
2023-02-25T00:39:09.986Z,95297.19
2023-02-25T00:41:38.053Z,95274.03
2023-02-25T00:44:07.244Z,95283.91
2023-02-25T00:46:35.557Z,95274.03
2023-02-25T00:49:03.794Z,95249.00
2023-02-25T00:51:32.557Z,95244.66
2023-02-25T00:54:02.067Z,95220.50
2023-02-25T00:56:30.171Z,95233.06
2023-02-25T00:58:58.291Z,95216.97
2023-02-25T01:01:27.383Z,95241.13
2023-02-25T01:03:56.599Z,95224.31
2023-02-25T01:06:25.366Z,95202.84
2023-02-25T01:08:53.677Z,95200.16
2023-02-25T01:11:27.180Z,95188.56
2023-02-25T01:13:55.500Z,95187.72
2023-02-25T01:16:24.778Z,95199.47
2023-02-25T01:18:53.615Z,95185.19
2023-02-25T01:21:26.582Z,95184.34
2023-02-25T01:23:58.767Z,95182.53
2023-02-25T01:26:28.798Z,95206.69
2023-02-25T01:28:56.989Z,95184.34
2023-02-25T01:31:29.622Z,95154.00
2023-02-25T01:33:58.707Z,95153.16
2023-02-25T01:36:27.058Z,95150.47
2023-02-25T01:38:56.421Z,95142.59
2023-02-25T01:41:25.096Z,95129.16
2023-02-25T01:44:12.012Z,95137.22
2023-02-25T01:46:40.560Z,95115.88
2023-02-25T01:49:10.541Z,95115.88
2023-02-25T01:51:38.715Z,95110.50
2023-02-25T01:54:08.943Z,95116.88
2023-02-25T01:56:37.105Z,95130.31
2023-02-25T01:59:05.198Z,95135.66
2023-02-25T02:01:35.507Z,95133.84
2023-02-25T02:04:05.358Z,95142.88
2023-02-25T02:06:35.006Z,95132.13
2023-02-25T02:09:03.436Z,95128.59
2023-02-25T02:11:31.497Z,95120.56
2023-02-25T02:14:02.624Z,95113.50
2023-02-25T02:16:39.708Z,95112.66
2023-02-25T02:19:25.558Z,95117.06
2023-02-25T02:22:00.969Z,95120.72
2023-02-25T02:24:58.921Z,95111.81
2023-02-25T02:27:27.641Z,95121.72
2023-02-25T02:30:26.322Z,95125.38
2023-02-25T02:32:58.265Z,95135.28
2023-02-25T02:35:30.056Z,95136.13
2023-02-25T02:38:04.881Z,95138.97
2023-02-25T02:40:52.008Z,95125.56
2023-02-25T02:43:24.981Z,95122.88
2023-02-25T02:45:58.085Z,95137.13
2023-02-25T02:48:30.380Z,95154.22
2023-02-25T02:50:59.600Z,95143.47
2023-02-25T02:53:30.137Z,95132.75
2023-02-25T02:56:00.216Z,95145.31
2023-02-25T02:58:29.939Z,95139.13
2023-02-25T03:00:59.919Z,95154.38
2023-02-25T03:03:36.412Z,95158.91
2023-02-25T03:06:06.452Z,95159.75
2023-02-25T03:08:35.553Z,95156.22
2023-02-25T03:11:03.916Z,95164.25
2023-02-25T03:13:32.158Z,95167.97
2023-02-25T03:16:00.761Z,95175.16
2023-02-25T03:18:32.936Z,95176.97
2023-02-25T03:21:01.063Z,95187.72
2023-02-25T03:23:30.515Z,95191.41
2023-02-25T03:26:01.537Z,95193.09
2023-02-25T03:28:32.344Z,95194.09
2023-02-25T03:31:03.292Z,95198.59
2023-02-25T03:33:35.858Z,95203.97
2023-02-25T03:36:06.398Z,95216.53
2023-02-25T03:38:37.654Z,95211.16
2023-02-25T03:41:07.512Z,95224.59
2023-02-25T03:43:38.291Z,95228.13
2023-02-25T03:46:06.594Z,95229.97
2023-02-25T03:48:36.928Z,95238.16
2023-02-25T03:51:09.146Z,95242.53
2023-02-25T03:53:38.572Z,95244.38
2023-02-25T03:56:15.675Z,95248.03
2023-02-25T03:58:45.898Z,95250.72
2023-02-25T04:01:17.352Z,95262.47
2023-02-25T04:03:47.053Z,95262.47
2023-02-25T04:06:16.416Z,95264.31
2023-02-25T04:08:44.985Z,95269.66
2023-02-25T04:11:15.500Z,95262.47
2023-02-25T04:13:45.380Z,95264.47
2023-02-25T04:16:14.166Z,95254.53
2023-02-25T04:18:42.588Z,95268.81
2023-02-25T04:21:30.382Z,95277.03
2023-02-25T04:23:58.577Z,95268.97
2023-02-25T04:26:26.875Z,95273.47
2023-02-25T04:28:55.056Z,95286.03
2023-02-25T04:31:23.371Z,95305.69
2023-02-25T04:33:51.599Z,95323.59
2023-02-25T04:36:28.456Z,95323.59
2023-02-25T04:38:56.868Z,95346.09
2023-02-25T04:41:25.101Z,95347.75
2023-02-25T04:43:53.269Z,95355.97
2023-02-25T04:46:21.780Z,95359.50
2023-02-25T04:48:50.093Z,95360.47
2023-02-25T04:51:18.144Z,95364.00
2023-02-25T04:53:47.937Z,95356.97
2023-02-25T04:56:16.041Z,95363.16
2023-02-25T04:58:44.291Z,95373.88
2023-02-25T05:01:12.529Z,95381.94
2023-02-25T05:03:40.666Z,95401.72
2023-02-25T05:06:08.983Z,95405.38
2023-02-25T05:08:37.176Z,95409.78
2023-02-25T05:11:06.843Z,95417.81
2023-02-25T05:13:34.909Z,95425.88
2023-02-25T05:16:07.776Z,95424.16
2023-02-25T05:18:37.648Z,95434.06
2023-02-25T05:21:06.502Z,95435.91
2023-02-25T05:23:34.662Z,95446.63
2023-02-25T05:26:02.788Z,95460.03
2023-02-25T05:28:32.282Z,95464.72
2023-02-25T05:31:00.536Z,95480.66
2023-02-25T05:33:28.665Z,95480.66
2023-02-25T05:35:56.708Z,95475.44
2023-02-25T05:38:26.045Z,95491.53
2023-02-25T05:40:54.233Z,95474.59
2023-02-25T05:43:22.451Z,95481.78
2023-02-25T05:45:55.342Z,95482.78
2023-02-25T05:48:23.413Z,95498.72
2023-02-25T05:50:51.678Z,95505.94
2023-02-25T05:53:20.012Z,95505.94
2023-02-25T05:55:48.052Z,95502.41
2023-02-25T05:58:16.175Z,95489.00
2023-02-25T06:00:44.842Z,95494.38
2023-02-25T06:03:14.371Z,95498.03
2023-02-25T06:05:42.585Z,95510.47
2023-02-25T06:08:11.098Z,95521.19
2023-02-25T06:10:40.051Z,95503.25
2023-02-25T06:13:08.123Z,95508.59
2023-02-25T06:15:38.143Z,95518.38
2023-02-25T06:18:06.582Z,95522.72
2023-02-25T06:20:36.325Z,95522.72
2023-02-25T06:23:07.367Z,95526.41
2023-02-25T06:25:35.500Z,95531.63
2023-02-25T06:28:03.671Z,95533.34
2023-02-25T06:30:32.012Z,95538.72
2023-02-25T06:33:00.128Z,95537.84
2023-02-25T06:35:28.478Z,95538.72
2023-02-25T06:37:58.061Z,95527.81
2023-02-25T06:40:26.317Z,95533.03
2023-02-25T06:42:54.507Z,95534.03
2023-02-25T06:45:24.018Z,95538.41
2023-02-25T06:47:52.144Z,95528.53
2023-02-25T06:50:20.368Z,95540.13
2023-02-25T06:52:48.431Z,95540.13
2023-02-25T06:55:18.075Z,95546.31
2023-02-25T06:57:46.136Z,95541.78
2023-02-25T07:00:15.334Z,95553.38
2023-02-25T07:02:43.412Z,95542.66
2023-02-25T07:05:11.492Z,95544.47
2023-02-25T07:07:39.588Z,95555.06
2023-02-25T07:10:08.903Z,95546.03
2023-02-25T07:12:38.376Z,95543.34
2023-02-25T07:15:07.678Z,95526.41
2023-02-25T07:17:35.747Z,95547.72
2023-02-25T07:20:03.900Z,95545.88
2023-02-25T07:22:31.968Z,95552.97
2023-02-25T07:25:00.578Z,95549.44
2023-02-25T07:27:28.717Z,95539.66
2023-02-25T07:29:58.201Z,95540.81
2023-02-25T07:32:26.471Z,95545.19
2023-02-25T07:34:54.674Z,95541.38
2023-02-25T07:37:22.792Z,95551.09
2023-02-25T07:39:50.861Z,95551.53
2023-02-25T07:42:19.028Z,95562.84
2023-02-25T07:44:49.388Z,95558.31
2023-02-25T07:47:19.440Z,95548.56
2023-02-25T07:49:47.497Z,95558.47
2023-02-25T07:52:15.549Z,95540.50
2023-02-25T07:54:43.816Z,95538.81
2023-02-25T07:57:11.854Z,95531.63
2023-02-25T07:59:40.083Z,95543.88
2023-02-25T08:02:10.359Z,95554.50
2023-02-25T08:04:39.987Z,95557.03
2023-02-25T08:07:08.030Z,95556.19
2023-02-25T08:09:36.123Z,95550.97
2023-02-25T08:12:04.258Z,95547.59
2023-02-25T08:14:32.409Z,95554.63
2023-02-25T08:17:01.962Z,95563.38
2023-02-25T08:19:30.258Z,95550.66
2023-02-25T08:22:00.329Z,95562.25
2023-02-25T08:24:28.474Z,95566.66
2023-02-25T08:26:56.680Z,95566.78
2023-02-25T08:29:24.735Z,95558.72
2023-02-25T08:31:53.219Z,95554.91
2023-02-25T08:34:21.400Z,95563.81
2023-02-25T08:36:49.510Z,95556.75
2023-02-25T08:39:19.367Z,95550.66
2023-02-25T08:41:48.432Z,95552.38
2023-02-25T08:44:18.798Z,95555.06
2023-02-25T08:46:48.001Z,95571.16
2023-02-25T08:49:16.182Z,95569.34
2023-02-25T08:51:44.269Z,95556.88
2023-02-25T08:54:13.181Z,95558.72
2023-02-25T08:56:44.506Z,95557.03
2023-02-25T08:59:14.204Z,95562.41
2023-02-25T09:01:45.821Z,95543.63
2023-02-25T09:04:14.675Z,95540.09
2023-02-25T09:06:44.401Z,95556.03
2023-02-25T09:09:13.447Z,95545.28
2023-02-25T09:11:43.036Z,95547.97
2023-02-25T09:14:11.655Z,95552.53
2023-02-25T09:16:39.699Z,95561.41
2023-02-25T09:19:07.880Z,95556.03
2023-02-25T09:21:36.947Z,95551.53
2023-02-25T09:24:05.548Z,95553.34
2023-02-25T09:26:33.652Z,95556.88
2023-02-25T09:29:03.527Z,95552.38
2023-02-25T09:31:33.285Z,95550.53
2023-02-25T09:34:04.621Z,95539.81
2023-02-25T09:36:33.973Z,95539.66
2023-02-25T09:39:02.520Z,95543.31
2023-02-25T09:41:33.494Z,95534.28
2023-02-25T09:44:05.821Z,95532.47
2023-02-25T09:46:34.413Z,95543.19
2023-02-25T09:49:04.616Z,95544.16
2023-02-25T09:51:34.132Z,95532.59
2023-02-25T09:54:08.592Z,95537.13
2023-02-25T09:56:36.770Z,95548.69
2023-02-25T09:59:06.166Z,95538.97
2023-02-25T10:01:35.673Z,95527.22
2023-02-25T10:04:06.916Z,95521.84
2023-02-25T10:06:37.007Z,95526.25
2023-02-25T10:09:10.203Z,95516.34
2023-02-25T10:11:43.222Z,95524.41
2023-02-25T10:14:21.865Z,95510.13
2023-02-25T10:16:53.902Z,95505.63
2023-02-25T10:19:30.056Z,95512.66
2023-02-25T10:22:05.228Z,95501.94
2023-02-25T10:24:37.117Z,95505.31
2023-02-25T10:27:11.502Z,95502.47
2023-02-25T10:29:42.649Z,95503.34
2023-02-25T10:32:19.892Z,95494.16
2023-02-25T10:34:48.084Z,95490.34
2023-02-25T10:37:18.715Z,95500.91
2023-02-25T10:39:48.646Z,95494.53
2023-02-25T10:42:17.422Z,95492.75
2023-02-25T10:44:47.003Z,95483.81
2023-02-25T10:47:16.866Z,95489.91
2023-02-25T10:49:46.058Z,95488.06
2023-02-25T10:52:17.777Z,95481.03
2023-02-25T10:54:48.112Z,95482.88
2023-02-25T10:57:17.801Z,95469.44
2023-02-25T10:59:49.333Z,95474.94
2023-02-25T11:02:23.426Z,95470.38
2023-02-25T11:04:52.804Z,95478.44
2023-02-25T11:07:32.973Z,95471.38
2023-02-25T11:10:10.441Z,95463.22
2023-02-25T11:12:42.495Z,95458.72
2023-02-25T11:15:43.035Z,95460.72
2023-02-25T11:18:18.054Z,95455.38
2023-02-25T11:20:50.678Z,95445.94
2023-02-25T11:23:23.054Z,95448.75
2023-02-25T11:25:53.858Z,95440.13
2023-02-25T11:28:29.109Z,95426.03
2023-02-25T11:31:06.205Z,95431.38
2023-02-25T11:33:35.764Z,95428.84
2023-02-25T11:36:04.007Z,95429.00
2023-02-25T11:38:36.639Z,95431.84
2023-02-25T11:41:05.066Z,95417.00
2023-02-25T11:43:37.081Z,95410.91
2023-02-25T11:46:08.890Z,95404.25
2023-02-25T11:48:46.853Z,95410.16
2023-02-25T11:51:20.813Z,95398.31
2023-02-25T11:53:56.799Z,95396.31
2023-02-25T11:56:27.518Z,95405.94
2023-02-25T11:59:03.447Z,95399.44
2023-02-25T12:01:39.311Z,95400.25
2023-02-25T12:04:21.201Z,95395.59
2023-02-25T12:06:59.300Z,95394.75
2023-02-25T12:09:55.565Z,95398.16
2023-02-25T12:13:03.051Z,95398.84
2023-02-25T12:15:50.923Z,95385.41
2023-02-25T12:18:57.451Z,95382.59
2023-02-25T12:21:58.044Z,95386.13
2023-02-25T12:24:43.531Z,95374.38
2023-02-25T12:27:27.972Z,95377.91
2023-02-25T12:30:08.542Z,95365.34
2023-02-25T12:32:47.373Z,95368.84
2023-02-25T12:35:51.238Z,95378.78
2023-02-25T12:38:35.537Z,95381.06
2023-02-25T12:41:29.153Z,95372.31
2023-02-25T12:44:03.757Z,95372.16
2023-02-25T12:46:45.712Z,95372.88
2023-02-25T12:49:34.866Z,95374.69
2023-02-25T12:52:28.339Z,95372.47
2023-02-25T12:55:25.201Z,95375.16
2023-02-25T12:58:02.981Z,95375.16
2023-02-25T13:00:39.538Z,95380.53
2023-02-25T13:03:22.299Z,95379.69
2023-02-25T13:06:13.557Z,95383.22
2023-02-25T13:09:07.224Z,95383.22
2023-02-25T13:12:09.519Z,95371.63
2023-02-25T13:14:37.444Z,95376.28
2023-02-25T13:17:40.607Z,95368.94
2023-02-25T13:20:34.000Z,95371.47
2023-02-25T13:23:21.101Z,95377.69
2023-02-25T13:26:01.142Z,95373.19
2023-02-25T13:28:46.457Z,95377.38
2023-02-25T13:31:16.448Z,95378.38
2023-02-25T13:33:51.428Z,95370.03
2023-02-25T13:36:55.011Z,95386.00
2023-02-25T13:39:53.303Z,95386.00
2023-02-25T13:42:55.727Z,95384.03
2023-02-25T13:45:47.102Z,95384.84
2023-02-25T13:48:34.110Z,95390.91
2023-02-25T13:51:12.940Z,95399.66
2023-02-25T13:53:59.530Z,95399.66
2023-02-25T13:56:53.054Z,95413.94
2023-02-25T13:59:43.740Z,95412.09
2023-02-25T14:02:34.478Z,95411.09
2023-02-25T14:05:23.991Z,95417.16
2023-02-25T14:08:08.323Z,95419.84
2023-02-25T14:10:44.299Z,95419.72
2023-02-25T14:13:34.608Z,95420.53
2023-02-25T14:16:07.287Z,95421.41
2023-02-25T14:18:51.880Z,95423.94
2023-02-25T14:21:36.615Z,95430.16
2023-02-25T14:24:06.515Z,95430.16
2023-02-25T14:26:37.496Z,95431.88
2023-02-25T14:29:14.213Z,95438.91
2023-02-25T14:31:51.804Z,95435.38
2023-02-25T14:34:28.560Z,95432.13
2023-02-25T14:37:03.759Z,95438.38
2023-02-25T14:39:37.781Z,95451.34
2023-02-25T14:42:13.747Z,95456.13
2023-02-25T14:44:44.021Z,95448.66
2023-02-25T14:47:14.415Z,95443.84
2023-02-25T14:49:45.390Z,95454.28
2023-02-25T14:52:33.180Z,95458.50
2023-02-25T14:55:26.136Z,95466.28
2023-02-25T14:58:25.901Z,95461.59
2023-02-25T15:01:12.862Z,95476.59
2023-02-25T15:03:57.708Z,95464.69
2023-02-25T15:06:44.731Z,95462.69
2023-02-25T15:09:49.414Z,95469.78
2023-02-25T15:12:26.462Z,95481.22
2023-02-25T15:15:15.640Z,95492.50
2023-02-25T15:18:28.552Z,95494.06
2023-02-25T15:20:57.160Z,95483.00
2023-02-25T15:23:41.460Z,95489.06
2023-02-25T15:26:27.866Z,95492.44
2023-02-25T15:28:56.353Z,95495.84
2023-02-25T15:31:30.066Z,95495.00
2023-02-25T15:34:30.202Z,95501.22
2023-02-25T15:37:19.181Z,95493.72
2023-02-25T15:39:56.243Z,95497.81
2023-02-25T15:42:55.090Z,95501.72
2023-02-25T15:45:44.673Z,95491.38
2023-02-25T15:48:38.096Z,95516.94
2023-02-25T15:51:10.274Z,95527.25
2023-02-25T15:53:41.094Z,95535.84
2023-02-25T15:56:48.038Z,95536.44
2023-02-25T15:59:41.254Z,95544.06
2023-02-25T16:02:35.099Z,95551.69
2023-02-25T16:05:03.740Z,95544.00
2023-02-25T16:07:33.175Z,95540.16
2023-02-25T16:10:03.121Z,95538.88
2023-02-25T16:12:33.180Z,95540.44
2023-02-25T16:15:01.330Z,95552.84
2023-02-25T16:17:30.782Z,95576.06
2023-02-25T16:20:00.655Z,95581.47
2023-02-25T16:22:29.207Z,95579.06
2023-02-25T16:24:58.436Z,95565.47
2023-02-25T16:27:36.373Z,95571.56
2023-02-25T16:30:09.776Z,95594.59
2023-02-25T16:32:42.897Z,95609.59
2023-02-25T16:35:12.948Z,95612.97
2023-02-25T16:37:45.353Z,95625.56
2023-02-25T16:40:17.844Z,95634.66
2023-02-25T16:42:48.005Z,95641.59
2023-02-25T16:45:28.089Z,95657.41
2023-02-25T16:47:58.157Z,95658.25
2023-02-25T16:50:26.311Z,95669.56
2023-02-25T16:52:54.485Z,95666.72
2023-02-25T16:55:23.796Z,95671.81
2023-02-25T16:58:21.008Z,95675.47
2023-02-25T17:00:51.376Z,95678.88
2023-02-25T17:03:19.844Z,95682.25
2023-02-25T17:06:00.600Z,95693.59
2023-02-25T17:08:29.690Z,95694.41
2023-02-25T17:10:58.918Z,95703.19
2023-02-25T17:13:33.950Z,95710.81
2023-02-25T17:16:04.050Z,95720.28
2023-02-25T17:18:33.148Z,95722.53
2023-02-25T17:21:03.383Z,95732.28
2023-02-25T17:23:32.311Z,95739.13
2023-02-25T17:26:00.516Z,95746.06
2023-02-25T17:28:30.991Z,95752.13
2023-02-25T17:31:09.887Z,95772.38
2023-02-25T17:33:38.311Z,95762.31
2023-02-25T17:36:09.611Z,95774.47
2023-02-25T17:38:39.121Z,95757.03
2023-02-25T17:41:07.580Z,95753.34
2023-02-25T17:43:38.055Z,95761.09
2023-02-25T17:46:16.779Z,95766.34
2023-02-25T17:48:45.888Z,95773.44
2023-02-25T17:51:14.458Z,95784.03
2023-02-25T17:53:44.818Z,95783.34
2023-02-25T17:56:16.484Z,95794.97
2023-02-25T17:58:46.303Z,95799.34
2023-02-25T18:01:25.734Z,95812.69
2023-02-25T18:03:54.275Z,95801.75
2023-02-25T18:06:33.761Z,95816.63
2023-02-25T18:09:03.118Z,95809.25
2023-02-25T18:11:32.869Z,95808.22
2023-02-25T18:14:04.297Z,95786.56
2023-02-25T18:16:42.405Z,95774.59
2023-02-25T18:19:33.119Z,95766.38
2023-02-25T18:22:01.293Z,95768.78
2023-02-25T18:24:31.187Z,95773.84
2023-02-25T18:27:18.504Z,95763.94
2023-02-25T18:29:48.313Z,95757.56
2023-02-25T18:32:16.438Z,95760.38
2023-02-25T18:34:45.081Z,95763.78
2023-02-25T18:37:15.709Z,95774.88
2023-02-25T18:39:43.804Z,95792.00
2023-02-25T18:42:16.372Z,95792.88
2023-02-25T18:44:44.710Z,95791.03
2023-02-25T18:47:14.231Z,95799.81
2023-02-25T18:49:42.480Z,95810.72
2023-02-25T18:52:14.962Z,95805.34
2023-02-25T18:54:43.148Z,95804.34
2023-02-25T18:57:19.210Z,95799.97
2023-02-25T18:59:47.468Z,95790.16
2023-02-25T19:02:29.621Z,95797.97
2023-02-25T19:04:57.942Z,95798.09
2023-02-25T19:07:26.524Z,95784.78
2023-02-25T19:09:55.887Z,95788.00
2023-02-25T19:12:24.364Z,95790.59
2023-02-25T19:14:55.344Z,95795.97
2023-02-25T19:17:24.981Z,95796.66
2023-02-25T19:19:53.451Z,95801.19
2023-02-25T19:22:21.847Z,95797.50
2023-02-25T19:24:49.981Z,95808.97
2023-02-25T19:27:22.970Z,95827.81
2023-02-25T19:29:51.639Z,95837.78
2023-02-25T19:32:20.210Z,95832.06
2023-02-25T19:34:49.796Z,95831.91
2023-02-25T19:37:18.812Z,95814.22
2023-02-25T19:39:46.947Z,95826.84
2023-02-25T19:42:15.578Z,95850.91
2023-02-25T19:44:43.714Z,95858.16
2023-02-25T19:47:11.967Z,95853.63
2023-02-25T19:49:40.159Z,95831.91
2023-02-25T19:52:10.146Z,95812.22
2023-02-25T19:54:38.347Z,95814.75
2023-02-25T19:57:06.518Z,95794.88
2023-02-25T19:59:35.000Z,95784.97
2023-02-25T20:02:03.310Z,95790.19
2023-02-25T20:04:31.716Z,95810.94
2023-02-25T20:06:59.980Z,95843.94
2023-02-25T20:09:29.595Z,95843.78
2023-02-25T20:11:57.871Z,95860.94
2023-02-25T20:14:28.109Z,95871.63
2023-02-25T20:16:57.319Z,95870.75
2023-02-25T20:19:28.024Z,95879.97
2023-02-25T20:21:56.244Z,95877.41
2023-02-25T20:24:24.471Z,95859.53
2023-02-25T20:26:54.129Z,95876.41
2023-02-25T20:29:22.288Z,95889.34
2023-02-25T20:31:51.923Z,95897.47
2023-02-25T20:34:21.654Z,95878.50
2023-02-25T20:36:52.528Z,95866.72
2023-02-25T20:39:30.601Z,95832.72
2023-02-25T20:42:00.736Z,95837.25
2023-02-25T20:44:29.641Z,95831.16
2023-02-25T20:46:58.278Z,95840.41
2023-02-25T20:49:26.889Z,95860.41
2023-02-25T20:51:55.685Z,95883.94
2023-02-25T20:54:23.789Z,95892.16
2023-02-25T20:56:51.906Z,95886.78
2023-02-25T20:59:21.468Z,95895.84
2023-02-25T21:01:49.646Z,95887.06
2023-02-25T21:04:17.808Z,95893.47
2023-02-25T21:06:46.022Z,95891.75
2023-02-25T21:09:14.553Z,95888.06
2023-02-25T21:11:43.225Z,95897.13
2023-02-25T21:14:11.494Z,95909.75
2023-02-25T21:16:41.184Z,95903.66
2023-02-25T21:19:09.467Z,95918.97
2023-02-25T21:21:38.544Z,95914.72
2023-02-25T21:24:07.287Z,95906.81
2023-02-25T21:26:39.472Z,95922.09
2023-02-25T21:29:08.012Z,95924.94
2023-02-25T21:31:36.234Z,95904.38
2023-02-25T21:34:06.045Z,95884.69
2023-02-25T21:36:34.598Z,95884.69
2023-02-25T21:39:03.041Z,95900.00
2023-02-25T21:41:31.261Z,95923.22
2023-02-25T21:43:59.633Z,95927.63
2023-02-25T21:46:28.247Z,95930.63
2023-02-25T21:48:56.600Z,95952.00
2023-02-25T21:51:26.841Z,95945.91
2023-02-25T21:53:55.580Z,95934.13
2023-02-25T21:56:24.084Z,95938.69
2023-02-25T21:58:54.660Z,95930.63
2023-02-25T22:01:23.845Z,95905.41
2023-02-25T22:03:52.060Z,95892.94
2023-02-25T22:06:23.925Z,95882.03
2023-02-25T22:08:54.118Z,95892.78
2023-02-25T22:11:23.104Z,95899.06
2023-02-25T22:13:52.801Z,95910.78
2023-02-25T22:16:21.116Z,95910.78
2023-02-25T22:18:49.330Z,95899.16
2023-02-25T22:21:18.168Z,95902.84
2023-02-25T22:23:48.532Z,95896.63
2023-02-25T22:26:18.906Z,95894.94
2023-02-25T22:28:47.162Z,95907.53
2023-02-25T22:31:16.161Z,95913.06
2023-02-25T22:33:44.845Z,95910.38
2023-02-25T22:36:13.437Z,95914.91
2023-02-25T22:38:43.100Z,95933.88
2023-02-25T22:41:12.931Z,95940.25
2023-02-25T22:43:42.538Z,95936.84
2023-02-25T22:46:11.416Z,95941.38
2023-02-25T22:48:39.889Z,95941.38
2023-02-25T22:51:09.385Z,95935.16
2023-02-25T22:53:37.555Z,95920.84
2023-02-25T22:56:06.937Z,95919.16
2023-02-25T22:58:35.199Z,95919.44
2023-02-25T23:01:04.942Z,95934.72
2023-02-25T23:03:33.153Z,95943.81
2023-02-25T23:06:01.501Z,95944.78
2023-02-25T23:08:29.704Z,95953.00
2023-02-25T23:10:57.840Z,95951.28
2023-02-25T23:13:26.058Z,95962.22
2023-02-25T23:15:54.284Z,95967.44
2023-02-25T23:18:24.053Z,95982.75
2023-02-25T23:20:53.675Z,96005.25
2023-02-25T23:23:21.884Z,96011.63
2023-02-25T23:25:51.573Z,96005.56
2023-02-25T23:28:19.900Z,96017.13
2023-02-25T23:30:48.119Z,96029.75
2023-02-25T23:33:16.254Z,96007.53
2023-02-25T23:35:45.996Z,95980.63
2023-02-25T23:38:14.226Z,95971.84
2023-02-25T23:40:45.256Z,95969.16
2023-02-25T23:43:13.405Z,95965.63
2023-02-25T23:45:45.140Z,95954.16
2023-02-25T23:48:15.497Z,95971.25
2023-02-25T23:50:45.063Z,95977.50
2023-02-25T23:53:13.177Z,95988.41
2023-02-25T23:55:41.322Z,96001.84
2023-02-25T23:58:09.637Z,96002.00
